Lebork, Poland

12:09 PM CEST on July 31, 2015 (GMT +0200)
Luzino | | Change Station
CLOSE
Current Station
Personal Weather Station
Location: Luzino, WOJ. POMORSKIE
Elevation: 331 ft
Nearby Weather Stations

Elev 331 ft 54.57 °N, 18.10 °E | Updated 4 minutes ago

Light Rain Showers
Light Showers Rain
57.6 °F
Feels Like 57.6 °F
N
6.9
Wind Variable Wind from WNW
Gusts 13.0 mph

Today
High -- | Low -- °F
--% Chance of Precip.
Yesterday
High -- | Low -- °F
Precip. -- in
4:57 AM 8:52 PM
Full, 100% visible
Pressure 29.89 in
Visibility 6.2 miles
Clouds Mostly Cloudy 900 ft
Scattered Clouds 2600 ft
Dew Point 57 °F
Humidity 99%
Rainfall 0.89 in
Snow Depth Not available.
UV 7 out of 12
Pollen Not available.
Air Quality Not available.
Flu Activity Not available.
METAR EPGD 311000Z 27012KT 240V300 9999 -SHRA BKN009 SCT026TCU 14/13 Q1012

More Conditions Fewer Conditions

Pressure 29.89 in
Visibility 6.2 miles
Clouds Mostly Cloudy 900 ft
Scattered Clouds 2600 ft
Dew Point 57 °F
Humidity 99%
Rainfall 0.89 in
Snow Depth Not available.
UV 7 out of 12
Pollen Not available.
Air Quality Not available.
Flu Activity Not available.
METAR EPGD 311000Z 27012KT 240V300 9999 -SHRA BKN009 SCT026TCU 14/13 Q1012

More Conditions Fewer Conditions

10-Day Weather Forecast

×

Almanac

Astronomy

Jul. 31, 2015 Rise Set
Actual Time
Civil Twilight
Nautical Twilight
Astronomical Twilight
Moon
Length of Visible Light
Length of Day
Tomorrow will be .
, % of the Moon is Illuminated

Today's Extremes

Country Highs Country Lows

Community

WunderPhotos

Upload Photos

1,842,639 photos uploaded!

WunderBlogs® & News

Nearby

Air Quality

  Air Quality AQ Index Pollutant
Not available.

Snow Depth

Station Depth Elevation

Earthquake Activity

City Distance Mag. Time & Date
Minimum magnitude displayed is 2.5.

Coastal Water Temperatures

Place Temperature

Stations

Nearby Weather Stations

Station Location Temp. Windchill Dew Point Humidity Wind Precip. Elev Updated Type